Terminal Aerodrome Forecast
Issued by NWS

Home | Current Version | Previous Version | Text Only | Print | Product List | Glossary Off
Versions: 1 2 3 4 5 6 7 8 9 10 11 12 13 14 15 16 17

107
FTUS43 KABR 081723
TAFPIR
TAF
KPIR 081723Z 0818/0918 33023G29KT P6SM SKC
     FM090000 33008KT P6SM OVC100
     FM091300 VRB04KT P6SM OVC050=

USA.gov is the U.S. government's official web portal to all federal, state and local government web resources and services.